createdAt,value
2023-05-25T00:00:36.129Z,38.96
2023-05-25T00:01:35.275Z,38.98
2023-05-25T00:02:35.398Z,38.88
2023-05-25T00:03:35.272Z,38.92
2023-05-25T00:04:35.471Z,38.92
2023-05-25T00:05:35.290Z,38.91
2023-05-25T00:06:35.234Z,38.91
2023-05-25T00:07:35.229Z,38.92
2023-05-25T00:08:35.203Z,38.88
2023-05-25T00:09:35.200Z,38.88
2023-05-25T00:10:35.187Z,38.87
2023-05-25T00:11:35.178Z,38.88
2023-05-25T00:12:35.174Z,38.91
2023-05-25T00:13:35.162Z,38.89
2023-05-25T00:14:35.137Z,38.86
2023-05-25T00:15:35.128Z,38.86
2023-05-25T00:16:35.182Z,38.83
2023-05-25T00:17:35.178Z,38.83
2023-05-25T00:18:35.132Z,38.87
2023-05-25T00:19:35.103Z,38.86
2023-05-25T00:20:35.178Z,38.84
2023-05-25T00:21:35.116Z,38.84
2023-05-25T00:22:35.111Z,38.87
2023-05-25T00:23:35.136Z,38.82
2023-05-25T00:24:35.097Z,38.86
2023-05-25T00:25:35.074Z,38.83
2023-05-25T00:26:35.090Z,38.84
2023-05-25T00:27:35.094Z,38.82
2023-05-25T00:28:35.081Z,38.80
2023-05-25T00:29:35.052Z,38.82
2023-05-25T00:30:35.060Z,38.84
2023-05-25T00:31:35.152Z,38.83
2023-05-25T00:32:35.057Z,38.80
2023-05-25T00:33:35.056Z,38.82
2023-05-25T00:34:35.011Z,38.80
2023-05-25T00:35:35.017Z,38.82
2023-05-25T00:36:35.013Z,38.82
2023-05-25T00:37:34.977Z,38.80
2023-05-25T00:38:35.002Z,38.80
2023-05-25T00:39:35.036Z,38.80
2023-05-25T00:40:35.058Z,38.80
2023-05-25T00:41:35.140Z,38.79
2023-05-25T00:42:35.207Z,38.80
2023-05-25T00:43:35.281Z,38.80
2023-05-25T00:44:35.282Z,38.80
2023-05-25T00:45:35.385Z,38.80
2023-05-25T00:46:35.466Z,38.84
2023-05-25T00:47:35.510Z,38.79
2023-05-25T00:48:35.539Z,38.74
2023-05-25T00:49:35.600Z,38.75
2023-05-25T00:50:35.669Z,38.81
2023-05-25T00:51:35.682Z,38.80
2023-05-25T00:52:35.752Z,38.76
2023-05-25T00:53:35.824Z,38.80
2023-05-25T00:54:35.867Z,38.77
2023-05-25T00:55:35.918Z,38.76
2023-05-25T00:56:35.968Z,38.74
2023-05-25T00:57:36.026Z,38.74
2023-05-25T00:58:36.098Z,38.75
2023-05-25T00:59:36.171Z,38.76
2023-05-25T01:00:36.212Z,38.72
2023-05-25T01:01:36.305Z,38.79
2023-05-25T01:02:36.403Z,38.75
2023-05-25T01:03:36.432Z,38.72
2023-05-25T01:04:36.461Z,38.72
2023-05-25T01:05:36.499Z,38.71
2023-05-25T01:06:36.571Z,38.75
2023-05-25T01:07:36.620Z,38.76
2023-05-25T01:08:36.668Z,38.71
2023-05-25T01:09:36.723Z,38.75
2023-05-25T01:10:36.806Z,38.75
2023-05-25T01:11:36.849Z,38.69
2023-05-25T01:12:36.968Z,38.73
2023-05-25T01:13:36.978Z,38.71
2023-05-25T01:14:37.048Z,38.71
2023-05-25T01:15:37.090Z,38.67
2023-05-25T01:16:37.167Z,38.73
2023-05-25T01:17:37.225Z,38.69
2023-05-25T01:18:37.260Z,38.67
2023-05-25T01:19:37.293Z,38.68
2023-05-25T01:20:37.395Z,38.68
2023-05-25T01:21:37.396Z,38.71
2023-05-25T01:22:37.475Z,38.69
2023-05-25T01:23:37.534Z,38.72
2023-05-25T01:24:37.559Z,38.72
2023-05-25T01:25:37.637Z,38.66
2023-05-25T01:26:37.684Z,38.68
2023-05-25T01:27:37.768Z,38.64
2023-05-25T01:28:37.835Z,38.67
2023-05-25T01:29:37.868Z,38.64
2023-05-25T01:30:37.931Z,38.64
2023-05-25T01:31:38.011Z,38.67
2023-05-25T01:32:38.085Z,38.66
2023-05-25T01:33:38.155Z,38.67
2023-05-25T01:34:38.177Z,38.63
2023-05-25T01:35:38.287Z,38.64
2023-05-25T01:36:38.257Z,38.60
2023-05-25T01:37:38.342Z,38.67
2023-05-25T01:38:38.405Z,38.66
2023-05-25T01:39:38.481Z,38.65
2023-05-25T01:40:38.505Z,38.63
2023-05-25T01:41:38.568Z,38.67
2023-05-25T01:42:38.655Z,38.65
2023-05-25T01:43:38.687Z,38.60
2023-05-25T01:44:38.774Z,38.60
2023-05-25T01:45:38.948Z,38.59
2023-05-25T01:46:39.053Z,38.65
2023-05-25T01:47:38.954Z,38.61
2023-05-25T01:48:38.991Z,38.61
2023-05-25T01:49:39.049Z,38.59
2023-05-25T01:50:39.128Z,38.64
2023-05-25T01:51:39.170Z,38.64
2023-05-25T01:52:39.239Z,38.63
2023-05-25T01:53:39.311Z,38.59
2023-05-25T01:54:39.354Z,38.65
2023-05-25T01:55:39.386Z,38.61
2023-05-25T01:56:39.470Z,38.55
2023-05-25T01:57:39.520Z,38.60
2023-05-25T01:58:39.581Z,38.64
2023-05-25T01:59:39.648Z,38.56
2023-05-25T02:00:39.695Z,38.56
2023-05-25T02:01:39.791Z,38.62
2023-05-25T02:02:39.842Z,38.57
2023-05-25T02:03:39.857Z,38.60
2023-05-25T02:04:39.943Z,38.57
2023-05-25T02:05:39.974Z,38.65
2023-05-25T02:06:40.038Z,38.62
2023-05-25T02:07:40.133Z,38.56
2023-05-25T02:08:40.161Z,38.57
2023-05-25T02:09:40.235Z,38.57
2023-05-25T02:10:41.245Z,38.53
2023-05-25T02:11:40.359Z,38.51
2023-05-25T02:12:40.401Z,38.55
2023-05-25T02:13:40.472Z,38.53
2023-05-25T02:14:40.487Z,38.56
2023-05-25T02:15:40.589Z,38.56
2023-05-25T02:16:40.630Z,38.57
2023-05-25T02:17:40.705Z,38.55
2023-05-25T02:18:40.726Z,38.55
2023-05-25T02:19:40.786Z,38.53
2023-05-25T02:20:41.023Z,38.55
2023-05-25T02:21:40.892Z,38.52
2023-05-25T02:22:40.939Z,38.48
2023-05-25T02:23:41.042Z,38.51
2023-05-25T02:24:41.079Z,38.53
2023-05-25T02:25:41.141Z,38.56
2023-05-25T02:26:41.181Z,38.50
2023-05-25T02:27:41.236Z,38.49
2023-05-25T02:28:41.294Z,38.51
2023-05-25T02:29:41.362Z,38.49
2023-05-25T02:30:41.437Z,38.53
2023-05-25T02:31:41.502Z,38.51
2023-05-25T02:32:41.582Z,38.53
2023-05-25T02:33:41.617Z,38.46
2023-05-25T02:34:41.658Z,38.48
2023-05-25T02:35:41.865Z,38.50
2023-05-25T02:36:41.773Z,38.49
2023-05-25T02:37:41.845Z,38.51
2023-05-25T02:38:41.889Z,38.43
2023-05-25T02:39:41.950Z,38.47
2023-05-25T02:40:42.005Z,38.46
2023-05-25T02:41:42.101Z,38.52
2023-05-25T02:42:42.150Z,38.47
2023-05-25T02:43:42.211Z,38.52
2023-05-25T02:44:42.245Z,38.49
2023-05-25T02:45:42.572Z,38.56
2023-05-25T02:46:42.379Z,38.48
2023-05-25T02:47:42.455Z,38.46
2023-05-25T02:48:42.511Z,38.50
2023-05-25T02:49:42.566Z,38.45
2023-05-25T02:50:42.632Z,38.45
2023-05-25T02:51:42.690Z,38.48
2023-05-25T02:52:42.771Z,38.44
2023-05-25T02:53:42.828Z,38.45
2023-05-25T02:54:42.884Z,38.51
2023-05-25T02:55:43.131Z,38.49
2023-05-25T02:56:43.005Z,38.48
2023-05-25T02:57:43.072Z,38.47
2023-05-25T02:58:43.122Z,38.53
2023-05-25T02:59:43.176Z,38.46
2023-05-25T03:00:43.236Z,38.49
2023-05-25T03:01:43.283Z,38.47
2023-05-25T03:02:43.364Z,38.50
2023-05-25T03:03:43.482Z,38.46
2023-05-25T03:04:43.485Z,38.44
2023-05-25T03:05:43.757Z,38.42
2023-05-25T03:06:43.565Z,38.41
2023-05-25T03:07:43.599Z,38.44
2023-05-25T03:08:43.659Z,38.44
2023-05-25T03:09:43.862Z,38.45
2023-05-25T03:10:43.791Z,38.42
2023-05-25T03:11:43.893Z,38.41
2023-05-25T03:12:43.947Z,38.39
2023-05-25T03:13:44.003Z,38.37
2023-05-25T03:14:44.064Z,38.44
2023-05-25T03:15:44.280Z,38.40
2023-05-25T03:16:44.247Z,38.44
2023-05-25T03:17:44.244Z,38.39
2023-05-25T03:18:44.313Z,38.40
2023-05-25T03:19:44.339Z,38.41
2023-05-25T03:20:44.436Z,38.39
2023-05-25T03:21:44.470Z,38.36
2023-05-25T03:22:44.546Z,38.40
2023-05-25T03:23:44.606Z,38.38
2023-05-25T03:24:44.670Z,38.38
2023-05-25T03:25:45.051Z,38.34
2023-05-25T03:26:44.797Z,38.38
2023-05-25T03:27:44.832Z,38.36
2023-05-25T03:28:44.897Z,38.33
2023-05-25T03:29:44.951Z,38.33
2023-05-25T03:30:45.029Z,38.41
2023-05-25T03:31:45.148Z,38.33
2023-05-25T03:32:45.217Z,38.32
2023-05-25T03:33:45.197Z,38.35
2023-05-25T03:34:45.262Z,38.32
2023-05-25T03:35:45.606Z,38.29
2023-05-25T03:36:45.378Z,38.33
2023-05-25T03:37:45.432Z,38.32
2023-05-25T03:38:45.519Z,38.31
2023-05-25T03:39:45.556Z,38.36
2023-05-25T03:40:45.630Z,38.32
2023-05-25T03:41:45.720Z,38.32
2023-05-25T03:42:45.762Z,38.33
2023-05-25T03:43:45.818Z,38.33
2023-05-25T03:44:45.862Z,38.32
2023-05-25T03:45:46.096Z,38.33
2023-05-25T03:46:46.112Z,38.32
2023-05-25T03:47:46.119Z,38.28
2023-05-25T03:48:46.137Z,38.29
2023-05-25T03:49:46.177Z,38.25
2023-05-25T03:50:46.242Z,38.30
2023-05-25T03:51:46.336Z,38.24
2023-05-25T03:52:46.374Z,38.24
2023-05-25T03:53:46.454Z,38.20
2023-05-25T03:54:46.478Z,38.20
2023-05-25T03:55:46.680Z,38.22
2023-05-25T03:56:46.602Z,38.23
2023-05-25T03:57:46.666Z,38.20
2023-05-25T03:58:46.740Z,38.23
2023-05-25T03:59:46.788Z,38.23
2023-05-25T04:00:46.855Z,38.20
2023-05-25T04:01:46.910Z,38.19
2023-05-25T04:02:47.004Z,38.22
2023-05-25T04:03:47.117Z,38.19
2023-05-25T04:04:47.165Z,38.18
2023-05-25T04:05:47.246Z,38.19
2023-05-25T04:06:47.224Z,38.19
2023-05-25T04:07:47.263Z,38.19
2023-05-25T04:08:47.326Z,38.15
2023-05-25T04:09:47.377Z,38.27
2023-05-25T04:10:47.440Z,38.18
2023-05-25T04:11:47.490Z,38.18
2023-05-25T04:12:47.558Z,38.19
2023-05-25T04:13:47.607Z,38.17
2023-05-25T04:14:47.664Z,38.17
2023-05-25T04:15:47.735Z,38.18
2023-05-25T04:16:47.890Z,38.17
2023-05-25T04:17:47.850Z,38.14
2023-05-25T04:18:47.900Z,38.23
2023-05-25T04:19:47.959Z,38.24
2023-05-25T04:20:48.045Z,38.19
2023-05-25T04:21:48.077Z,38.11
2023-05-25T04:22:48.138Z,38.14
2023-05-25T04:23:48.184Z,38.13
2023-05-25T04:24:48.260Z,38.09
2023-05-25T04:25:48.305Z,38.14
2023-05-25T04:26:48.382Z,38.22
2023-05-25T04:27:48.415Z,38.21
2023-05-25T04:28:48.478Z,38.15
2023-05-25T04:29:48.546Z,38.18
2023-05-25T04:30:48.638Z,38.22
2023-05-25T04:31:48.701Z,38.16
2023-05-25T04:32:48.750Z,38.13
2023-05-25T04:33:48.826Z,38.07
2023-05-25T04:34:48.877Z,38.09
2023-05-25T04:35:48.954Z,38.17
2023-05-25T04:36:48.982Z,38.14
2023-05-25T04:37:49.022Z,38.17
2023-05-25T04:38:49.096Z,38.17
2023-05-25T04:39:49.169Z,38.13
2023-05-25T04:40:49.266Z,37.99
2023-05-25T04:41:49.293Z,38.12
2023-05-25T04:42:49.381Z,38.07
2023-05-25T04:44:04.707Z,38.09
2023-05-25T04:44:50.406Z,38.15
2023-05-25T04:45:49.406Z,38.13
2023-05-25T04:46:49.412Z,38.08
2023-05-25T04:47:49.411Z,38.12
2023-05-25T04:48:49.373Z,38.16
2023-05-25T04:49:49.366Z,38.14
2023-05-25T04:50:49.395Z,38.06
2023-05-25T04:51:49.362Z,38.00
2023-05-25T04:52:49.365Z,38.03
2023-05-25T04:53:49.397Z,38.18
2023-05-25T04:54:49.444Z,38.27
2023-05-25T04:55:49.522Z,38.28
2023-05-25T04:56:49.570Z,38.20
2023-05-25T04:57:49.624Z,38.08
2023-05-25T04:58:49.709Z,38.07
2023-05-25T04:59:49.796Z,38.06
2023-05-25T05:00:52.498Z,38.14
2023-05-25T05:01:49.862Z,38.13
2023-05-25T05:02:49.895Z,38.02
2023-05-25T05:03:49.837Z,38.11
2023-05-25T05:04:49.784Z,38.10
2023-05-25T05:05:49.809Z,38.01
2023-05-25T05:06:49.814Z,38.25
2023-05-25T05:07:49.772Z,38.09
2023-05-25T05:08:49.791Z,38.21
2023-05-25T05:09:49.770Z,38.20
2023-05-25T05:10:49.750Z,38.25
2023-05-25T05:11:49.731Z,38.34
2023-05-25T05:12:49.768Z,38.21
2023-05-25T05:13:49.750Z,38.19
2023-05-25T05:14:49.721Z,38.29
2023-05-25T05:15:49.725Z,38.11
2023-05-25T05:16:49.783Z,37.98
2023-05-25T05:17:49.770Z,37.97
2023-05-25T05:18:49.697Z,37.85
2023-05-25T05:19:49.700Z,37.96
2023-05-25T05:20:49.675Z,37.76
2023-05-25T05:21:49.683Z,37.74
2023-05-25T05:22:49.645Z,37.69
2023-05-25T05:23:49.647Z,37.63
2023-05-25T05:24:49.653Z,37.63
2023-05-25T05:25:49.677Z,37.61
2023-05-25T05:26:58.414Z,37.59
2023-05-25T05:27:50.633Z,37.61
2023-05-25T05:28:49.628Z,37.55
2023-05-25T05:29:49.628Z,37.62
2023-05-25T05:30:49.628Z,37.50
2023-05-25T05:31:49.683Z,37.54
2023-05-25T05:32:49.634Z,37.55
2023-05-25T05:33:49.624Z,37.52
2023-05-25T05:34:49.585Z,37.54
2023-05-25T05:35:49.600Z,37.53
2023-05-25T05:36:57.230Z,37.44
2023-05-25T05:37:50.552Z,37.45
2023-05-25T05:38:49.592Z,37.64
2023-05-25T05:39:49.553Z,37.67
2023-05-25T05:40:49.532Z,37.70
2023-05-25T05:41:49.505Z,37.85
2023-05-25T05:42:49.546Z,37.86
2023-05-25T05:43:49.509Z,38.13
2023-05-25T05:44:49.528Z,38.27
2023-05-25T05:45:49.518Z,38.35
2023-05-25T05:46:49.639Z,38.54
2023-05-25T05:47:49.530Z,38.82
2023-05-25T05:48:49.470Z,38.82
2023-05-25T05:49:49.499Z,38.98
2023-05-25T05:50:49.462Z,39.10
2023-05-25T05:51:49.457Z,39.43
2023-05-25T05:52:49.430Z,39.48
2023-05-25T05:53:49.488Z,39.61
2023-05-25T05:54:49.439Z,39.87
2023-05-25T05:55:52.387Z,39.99
2023-05-25T05:56:49.435Z,40.38
2023-05-25T05:57:49.427Z,40.55
2023-05-25T05:58:49.420Z,40.80
2023-05-25T05:59:49.397Z,40.89
2023-05-25T06:00:49.415Z,41.19
2023-05-25T06:01:49.476Z,41.14
2023-05-25T06:02:49.520Z,41.65
2023-05-25T06:03:49.402Z,41.70
2023-05-25T06:04:49.376Z,41.93
2023-05-25T06:05:49.447Z,42.28
2023-05-25T06:06:49.348Z,42.46
2023-05-25T06:07:49.362Z,42.67
2023-05-25T06:08:49.355Z,42.69
2023-05-25T06:09:49.347Z,42.91
2023-05-25T06:10:49.354Z,42.98
2023-05-25T06:11:49.429Z,43.07
2023-05-25T06:12:49.323Z,43.29
2023-05-25T06:13:49.331Z,43.41
2023-05-25T06:14:49.312Z,43.52
2023-05-25T06:15:49.292Z,43.63
2023-05-25T06:16:49.340Z,43.75
2023-05-25T06:17:49.340Z,43.89
2023-05-25T06:18:49.269Z,43.98
2023-05-25T06:19:49.286Z,44.65
2023-05-25T06:20:49.268Z,44.52
2023-05-25T06:21:49.252Z,44.49
2023-05-25T06:22:49.221Z,44.59
2023-05-25T06:23:49.250Z,44.65
2023-05-25T06:24:49.247Z,44.82
2023-05-25T06:25:49.249Z,44.90
2023-05-25T06:26:49.217Z,45.04
2023-05-25T06:27:49.192Z,45.39
2023-05-25T06:28:49.201Z,45.30
2023-05-25T06:29:49.206Z,45.50
2023-05-25T06:30:49.175Z,45.56
2023-05-25T06:31:49.221Z,45.66
2023-05-25T06:32:49.259Z,45.69
2023-05-25T06:33:49.345Z,45.82
2023-05-25T06:34:49.206Z,45.88
2023-05-25T06:35:51.045Z,45.93
2023-05-25T06:36:49.294Z,46.19
2023-05-25T06:37:49.344Z,46.12
2023-05-25T06:38:49.330Z,45.83
2023-05-25T06:39:49.348Z,41.59
2023-05-25T06:40:49.330Z,43.92
2023-05-25T06:41:49.360Z,44.77
2023-05-25T06:42:49.352Z,45.01
2023-05-25T06:43:49.408Z,44.70
2023-05-25T06:44:49.422Z,44.60
2023-05-25T06:45:50.344Z,44.69
2023-05-25T06:46:49.476Z,44.74
2023-05-25T06:47:49.518Z,44.84
2023-05-25T06:48:49.438Z,44.94
2023-05-25T06:49:49.436Z,44.99
2023-05-25T06:50:49.431Z,45.24
2023-05-25T06:51:49.451Z,45.32
2023-05-25T06:52:49.480Z,45.52
2023-05-25T06:53:49.424Z,45.59
2023-05-25T06:54:49.448Z,45.71
2023-05-25T06:55:49.498Z,45.83
2023-05-25T06:56:49.507Z,45.96
2023-05-25T06:57:49.598Z,46.05
2023-05-25T06:58:49.667Z,46.30
2023-05-25T06:59:49.680Z,46.38
2023-05-25T07:00:49.742Z,46.44
2023-05-25T07:01:49.919Z,46.58
2023-05-25T07:02:49.900Z,46.68
2023-05-25T07:03:49.900Z,46.81
2023-05-25T07:04:50.003Z,46.81
2023-05-25T07:05:50.000Z,46.92
2023-05-25T07:06:50.054Z,47.03
2023-05-25T07:07:50.117Z,47.15
2023-05-25T07:08:50.141Z,47.14
2023-05-25T07:09:50.184Z,47.39
2023-05-25T07:10:50.542Z,47.34
2023-05-25T07:11:50.248Z,47.44
2023-05-25T07:12:50.279Z,47.59
2023-05-25T07:13:50.353Z,47.76
2023-05-25T07:14:50.363Z,47.72
2023-05-25T07:15:50.480Z,47.83
2023-05-25T07:16:50.481Z,47.79
2023-05-25T07:17:50.578Z,47.87
2023-05-25T07:18:50.532Z,47.95
2023-05-25T07:19:50.629Z,47.95
2023-05-25T07:20:50.611Z,48.09
2023-05-25T07:21:50.655Z,48.12
2023-05-25T07:22:50.660Z,48.14
2023-05-25T07:23:50.712Z,48.28
2023-05-25T07:24:50.744Z,48.23
2023-05-25T07:25:50.776Z,48.43
2023-05-25T07:26:50.774Z,48.50
2023-05-25T07:27:50.803Z,48.57
2023-05-25T07:28:50.851Z,48.74
2023-05-25T07:29:50.856Z,48.74
2023-05-25T07:30:50.886Z,48.74
2023-05-25T07:31:51.026Z,48.62
2023-05-25T07:32:51.021Z,48.42
2023-05-25T07:33:50.985Z,48.20
2023-05-25T07:34:51.009Z,48.02
2023-05-25T07:35:51.018Z,47.70
2023-05-25T07:36:51.081Z,47.19
2023-05-25T07:37:51.111Z,47.03
2023-05-25T07:38:51.218Z,46.73
2023-05-25T07:39:51.201Z,45.71
2023-05-25T07:40:51.234Z,45.97
2023-05-25T07:41:51.303Z,45.79
2023-05-25T07:42:51.377Z,43.10
2023-05-25T07:43:51.402Z,44.47
2023-05-25T07:44:51.410Z,44.64
2023-05-25T07:45:51.415Z,43.62
2023-05-25T07:46:51.525Z,44.06
2023-05-25T07:47:51.443Z,42.09
2023-05-25T07:48:51.454Z,38.98
2023-05-25T07:49:51.415Z,36.30
2023-05-25T07:50:51.463Z,36.80
2023-05-25T07:51:51.490Z,37.15
2023-05-25T07:52:51.547Z,38.31
2023-05-25T07:53:51.573Z,38.62
2023-05-25T07:54:51.697Z,38.81
2023-05-25T07:55:51.679Z,39.22
2023-05-25T07:56:51.725Z,39.97
2023-05-25T07:57:51.782Z,40.30
2023-05-25T07:58:51.803Z,40.17
2023-05-25T07:59:51.825Z,40.25
2023-05-25T08:00:51.886Z,40.40
2023-05-25T08:01:51.872Z,40.50
2023-05-25T08:02:51.961Z,40.65
2023-05-25T08:03:51.976Z,40.71
2023-05-25T08:04:52.072Z,40.99
2023-05-25T08:05:51.861Z,41.23
2023-05-25T08:06:51.931Z,41.20
2023-05-25T08:07:51.881Z,41.16
2023-05-25T08:08:51.828Z,41.50
2023-05-25T08:09:51.879Z,41.62
2023-05-25T08:10:51.920Z,41.65
2023-05-25T08:11:52.385Z,41.91
2023-05-25T08:12:52.760Z,42.07
2023-05-25T08:13:51.947Z,42.17
2023-05-25T08:14:51.954Z,42.37
2023-05-25T08:15:51.932Z,42.73
2023-05-25T08:16:52.093Z,42.77
2023-05-25T08:17:51.916Z,42.95
2023-05-25T08:18:51.899Z,43.04
2023-05-25T08:19:51.902Z,43.17
2023-05-25T08:20:51.923Z,43.22
2023-05-25T08:21:51.908Z,43.40
2023-05-25T08:22:51.862Z,43.39
2023-05-25T08:23:51.849Z,43.50
2023-05-25T08:24:51.855Z,43.64
2023-05-25T08:25:51.868Z,43.79
2023-05-25T08:26:54.363Z,43.91
2023-05-25T08:27:51.831Z,43.91
2023-05-25T08:28:51.846Z,43.91
2023-05-25T08:29:51.821Z,43.88
2023-05-25T08:30:51.824Z,43.95
2023-05-25T08:31:51.823Z,43.88
2023-05-25T08:32:51.822Z,43.90
2023-05-25T08:33:51.811Z,43.91
2023-05-25T08:34:51.809Z,44.08
2023-05-25T08:35:51.823Z,44.11
2023-05-25T08:36:51.833Z,44.01
2023-05-25T08:37:51.796Z,43.83
2023-05-25T08:38:51.778Z,40.62
2023-05-25T08:39:51.800Z,37.83
2023-05-25T08:40:51.740Z,38.28
2023-05-25T08:41:51.761Z,37.81
2023-05-25T08:42:51.757Z,38.99
2023-05-25T08:43:51.775Z,38.66
2023-05-25T08:44:51.719Z,36.46
2023-05-25T08:45:51.836Z,37.34
2023-05-25T08:46:51.705Z,37.90
2023-05-25T08:47:51.756Z,38.17
2023-05-25T08:48:51.752Z,39.02
2023-05-25T08:49:51.809Z,39.30
2023-05-25T08:50:51.681Z,36.89
2023-05-25T08:51:51.676Z,37.78
2023-05-25T08:52:51.649Z,37.45
2023-05-25T08:53:51.693Z,37.83
2023-05-25T08:54:51.680Z,38.67
2023-05-25T08:55:51.661Z,38.65
2023-05-25T08:56:51.644Z,38.90
2023-05-25T08:57:51.660Z,37.76
2023-05-25T08:58:51.649Z,38.66
2023-05-25T08:59:51.643Z,37.84
2023-05-25T09:00:51.631Z,37.97
2023-05-25T09:01:51.633Z,38.22
2023-05-25T09:02:51.850Z,38.97
2023-05-25T09:03:51.656Z,38.89
2023-05-25T09:04:51.574Z,38.93
2023-05-25T09:05:51.575Z,37.71
2023-05-25T09:07:05.868Z,37.18
2023-05-25T09:07:52.621Z,38.20
2023-05-25T09:08:51.572Z,38.19
2023-05-25T09:09:51.553Z,38.40
2023-05-25T09:10:51.532Z,38.58
2023-05-25T09:11:51.513Z,37.22
2023-05-25T09:12:51.754Z,38.58
2023-05-25T09:13:51.531Z,38.65
2023-05-25T09:14:51.521Z,38.68
2023-05-25T09:15:51.495Z,38.66
2023-05-25T09:16:51.638Z,38.60
2023-05-25T09:17:51.523Z,38.38
2023-05-25T09:18:51.497Z,38.53
2023-05-25T09:19:51.497Z,38.54
2023-05-25T09:20:51.680Z,38.28
2023-05-25T09:21:56.956Z,38.28
2023-05-25T09:22:52.458Z,38.43
2023-05-25T09:23:51.451Z,38.51
2023-05-25T09:24:51.437Z,38.46
2023-05-25T09:25:51.446Z,38.16
2023-05-25T09:26:51.456Z,38.36
2023-05-25T09:27:51.445Z,38.39
2023-05-25T09:28:51.441Z,38.38
2023-05-25T09:29:51.428Z,38.24
2023-05-25T09:30:51.441Z,38.41
2023-05-25T09:31:51.583Z,38.01
2023-05-25T09:32:51.634Z,38.15
2023-05-25T09:33:51.627Z,38.03
2023-05-25T09:34:51.704Z,37.48
2023-05-25T09:35:51.723Z,38.37
2023-05-25T09:36:51.948Z,38.24
2023-05-25T09:37:51.954Z,38.32
2023-05-25T09:38:52.100Z,38.30
2023-05-25T09:39:51.926Z,38.33
2023-05-25T09:40:51.985Z,37.33
2023-05-25T09:41:52.032Z,36.46
2023-05-25T09:42:52.085Z,36.98
2023-05-25T09:44:52.135Z,35.73
2023-05-25T09:45:52.205Z,35.88
2023-05-25T09:46:52.180Z,35.50
2023-05-25T09:47:52.281Z,35.39
2023-05-25T09:48:52.263Z,35.72
2023-05-25T09:49:52.293Z,36.04
2023-05-25T09:50:52.486Z,35.52
2023-05-25T09:51:52.389Z,35.35
2023-05-25T09:52:52.403Z,35.32
2023-05-25T09:53:52.481Z,35.06
2023-05-25T09:54:52.510Z,35.28
2023-05-25T09:55:54.478Z,35.13
2023-05-25T09:56:52.624Z,35.02
2023-05-25T09:57:52.679Z,35.18
2023-05-25T09:58:52.715Z,34.79
2023-05-25T09:59:52.753Z,34.89
2023-05-25T10:00:52.787Z,34.70
2023-05-25T10:01:52.913Z,34.68
2023-05-25T10:02:52.945Z,34.59
2023-05-25T10:04:03.503Z,34.39
2023-05-25T10:04:54.048Z,34.72
2023-05-25T10:05:52.987Z,34.62
2023-05-25T10:06:52.975Z,34.28
2023-05-25T10:07:52.942Z,34.31
2023-05-25T10:08:52.947Z,34.36
2023-05-25T10:09:52.941Z,34.49
2023-05-25T10:10:52.955Z,34.33
2023-05-25T10:11:52.935Z,34.59
2023-05-25T10:12:52.921Z,34.71
2023-05-25T10:13:52.910Z,34.54
2023-05-25T10:14:53.092Z,34.28
2023-05-25T10:15:53.099Z,34.41
2023-05-25T10:16:53.086Z,34.64
2023-05-25T10:17:53.186Z,34.59
2023-05-25T10:18:53.206Z,34.43
2023-05-25T10:19:53.286Z,34.43
2023-05-25T10:20:53.393Z,34.85
2023-05-25T10:21:54.299Z,34.50
2023-05-25T10:22:53.306Z,34.30
2023-05-25T10:23:53.306Z,34.36
2023-05-25T10:24:53.292Z,34.68
2023-05-25T10:25:53.244Z,34.13
2023-05-25T10:26:53.251Z,34.38
2023-05-25T10:27:54.367Z,34.41
2023-05-25T10:28:53.284Z,34.73
2023-05-25T10:29:53.263Z,34.70
2023-05-25T10:30:53.220Z,34.58
2023-05-25T10:31:53.288Z,34.65
2023-05-25T10:32:53.318Z,34.46
2023-05-25T10:33:53.338Z,34.68
2023-05-25T10:34:53.371Z,34.54
2023-05-25T10:36:53.435Z,33.97
2023-05-25T10:37:53.407Z,33.93
2023-05-25T10:38:53.399Z,33.84
2023-05-25T10:39:53.381Z,34.09
2023-05-25T10:40:53.374Z,34.03
2023-05-25T10:41:53.349Z,33.89
2023-05-25T10:42:53.370Z,33.38
2023-05-25T10:43:53.373Z,33.77
2023-05-25T10:44:53.354Z,33.99
2023-05-25T10:45:54.527Z,34.04
2023-05-25T10:46:53.367Z,34.26
2023-05-25T10:47:53.368Z,34.41
2023-05-25T10:48:53.326Z,34.37
2023-05-25T10:49:53.336Z,34.46
2023-05-25T10:50:53.331Z,34.98
2023-05-25T10:51:53.374Z,34.95
2023-05-25T10:52:53.380Z,34.91
2023-05-25T10:53:53.462Z,34.77
2023-05-25T10:54:53.486Z,34.80
2023-05-25T10:55:53.536Z,34.81
2023-05-25T10:56:53.550Z,34.67
2023-05-25T10:57:53.569Z,34.79
2023-05-25T10:58:53.594Z,34.82
2023-05-25T10:59:53.629Z,34.83
2023-05-25T11:00:53.727Z,34.89
2023-05-25T11:01:53.654Z,34.97
2023-05-25T11:02:53.758Z,34.97
2023-05-25T11:03:53.695Z,35.00
2023-05-25T11:04:53.648Z,35.07
2023-05-25T11:05:53.663Z,35.10
2023-05-25T11:06:53.632Z,35.10
2023-05-25T11:07:53.655Z,35.12
2023-05-25T11:08:53.646Z,35.12
2023-05-25T11:09:53.687Z,35.10
2023-05-25T11:10:53.640Z,35.12
2023-05-25T11:11:53.638Z,35.15
2023-05-25T11:12:53.703Z,34.99
2023-05-25T11:13:53.622Z,34.45
2023-05-25T11:14:53.682Z,34.65
2023-05-25T11:15:53.651Z,34.52
2023-05-25T11:16:53.668Z,34.27
2023-05-25T11:17:53.700Z,34.31
2023-05-25T11:18:53.691Z,34.27
2023-05-25T11:19:53.744Z,34.44
2023-05-25T11:20:53.704Z,34.16
2023-05-25T11:21:53.709Z,33.96
2023-05-25T11:22:53.718Z,34.03
2023-05-25T11:23:53.738Z,34.33
2023-05-25T11:24:53.724Z,34.51
2023-05-25T11:25:53.741Z,34.55
2023-05-25T11:26:53.756Z,34.62
2023-05-25T11:27:53.728Z,34.62
2023-05-25T11:28:53.726Z,34.71
2023-05-25T11:29:53.769Z,34.73
2023-05-25T11:30:53.786Z,34.77
2023-05-25T11:31:53.769Z,34.86
2023-05-25T11:32:53.807Z,34.89
2023-05-25T11:33:53.730Z,34.92
2023-05-25T11:34:53.781Z,34.37
2023-05-25T11:35:53.752Z,34.30
2023-05-25T11:36:53.741Z,34.13
2023-05-25T11:37:53.764Z,34.30
2023-05-25T11:39:03.547Z,34.35
2023-05-25T11:39:54.755Z,34.25
2023-05-25T11:40:53.749Z,33.99
2023-05-25T11:41:53.716Z,33.99
2023-05-25T11:42:53.723Z,34.00
2023-05-25T11:43:53.699Z,34.00
2023-05-25T11:44:53.727Z,33.76
2023-05-25T11:45:53.730Z,33.61
2023-05-25T11:46:53.751Z,33.58
2023-05-25T11:47:53.729Z,33.40
2023-05-25T11:48:53.672Z,33.33
2023-05-25T11:49:53.676Z,33.33
2023-05-25T11:50:53.658Z,33.35
2023-05-25T11:51:53.650Z,33.45
2023-05-25T11:52:53.661Z,33.51
2023-05-25T11:53:53.638Z,33.39
2023-05-25T11:54:53.656Z,33.35
2023-05-25T11:56:03.534Z,33.21
2023-05-25T11:56:54.702Z,33.14
2023-05-25T11:57:53.622Z,33.22
2023-05-25T11:58:53.603Z,33.00
2023-05-25T11:59:53.602Z,33.00
2023-05-25T12:00:53.607Z,32.95
2023-05-25T12:01:53.564Z,32.95
2023-05-25T12:02:53.692Z,32.93
2023-05-25T12:03:53.661Z,33.02
2023-05-25T12:04:53.594Z,32.92
2023-05-25T12:05:53.529Z,32.89
2023-05-25T12:06:53.549Z,32.89
2023-05-25T12:07:53.537Z,32.80
2023-05-25T12:08:53.558Z,32.77
2023-05-25T12:09:53.510Z,32.76
2023-05-25T12:10:53.572Z,32.86
2023-05-25T12:11:53.508Z,32.73
2023-05-25T12:12:53.507Z,32.73
2023-05-25T12:13:53.475Z,32.80
2023-05-25T12:14:53.495Z,32.62
2023-05-25T12:15:53.477Z,32.48
2023-05-25T12:16:53.536Z,32.56
2023-05-25T12:17:53.563Z,32.46
2023-05-25T12:18:53.506Z,32.39
2023-05-25T12:19:53.502Z,32.23
2023-05-25T12:20:53.602Z,32.17
2023-05-25T12:21:53.546Z,32.22
2023-05-25T12:22:53.632Z,32.19
2023-05-25T12:23:53.632Z,32.21
2023-05-25T12:24:53.693Z,32.28
2023-05-25T12:25:53.886Z,32.06
2023-05-25T12:26:53.841Z,31.97
2023-05-25T12:27:53.880Z,31.66
2023-05-25T12:28:53.964Z,31.54
2023-05-25T12:29:54.016Z,31.59
2023-05-25T12:30:54.078Z,31.61
2023-05-25T12:31:54.138Z,31.45
2023-05-25T12:32:54.222Z,31.37
2023-05-25T12:33:54.204Z,31.16
2023-05-25T12:34:54.257Z,31.09
2023-05-25T12:35:54.300Z,30.89
2023-05-25T12:36:54.356Z,30.82
2023-05-25T12:37:54.390Z,30.70
2023-05-25T12:38:54.492Z,30.73
2023-05-25T12:39:55.615Z,30.63
2023-05-25T12:40:54.515Z,30.53
2023-05-25T12:41:55.178Z,30.53
2023-05-25T12:42:54.571Z,30.47
2023-05-25T12:43:54.617Z,30.37
2023-05-25T12:44:54.628Z,30.26
2023-05-25T12:45:54.681Z,30.26
2023-05-25T12:46:54.746Z,30.14
2023-05-25T12:47:54.722Z,30.03
2023-05-25T12:48:54.706Z,29.99
2023-05-25T12:49:54.746Z,29.97
2023-05-25T12:50:54.760Z,29.92
2023-05-25T12:51:54.789Z,29.77
2023-05-25T12:52:54.768Z,29.90
2023-05-25T12:53:54.822Z,29.91
2023-05-25T12:54:54.809Z,29.81